Time;durP1;ratioP1;P1;durP2;ratioP2;P2;SDS_P1;SDS_P2;PMS_P1;PMS_P2;Temp;Humidity;BMP_temperature;BMP_pressure;BME280_temperature;BME280_humidity;BME280_pressure;Samples;Min_cycle;Max_cycle;Signal;HPM_P1;HPM_P2
2023/09/24 00:04:14;;;;;;;5.30;2.70;;;;;;;12.32;84.82;99028.37;434189;1258;99119;-42
2023/09/24 00:24:25;;;;;;;7.10;2.70;;;;;;;12.24;85.09;99033.42;434071;1258;99222;-42
2023/09/24 00:34:30;;;;;;;4.30;2.50;;;;;;;12.24;85.06;99011.73;433793;1255;531641;-42
2023/09/24 00:44:37;;;;;;;6.80;3.20;;;;;;;12.01;85.16;99001.36;434179;1258;108179;-41
2023/09/24 00:54:45;;;;;;;6.60;3.20;;;;;;;11.85;85.14;99006.53;434242;1258;99224;-42
2023/09/24 01:04:55;;;;;;;4.40;2.50;;;;;;;11.80;85.12;99015.77;433909;1258;108497;-43
2023/09/24 01:15:02;;;;;;;5.90;2.40;;;;;;;11.67;85.25;99036.65;434037;1255;99388;-42
2023/09/24 01:25:11;;;;;;;5.20;3.10;;;;;;;11.72;85.56;99055.15;434192;1258;111275;-42
2023/09/24 01:35:25;;;;;;;3.60;2.40;;;;;;;11.77;85.62;99067.08;434191;1258;109077;-42
2023/09/24 02:05:48;;;;;;;3.10;1.80;;;;;;;11.60;85.67;99097.30;435195;1256;98843;-42
2023/09/24 02:15:55;;;;;;;3.30;1.80;;;;;;;11.66;85.69;99095.63;435088;1256;111694;-43
2023/09/24 02:26:02;;;;;;;10.80;2.10;;;;;;;11.72;85.80;99108.59;435263;1255;108124;-43
2023/09/24 02:56:22;;;;;;;3.90;1.70;;;;;;;11.64;85.74;99152.76;435327;1256;99215;-41
2023/09/24 03:06:29;;;;;;;5.60;2.10;;;;;;;11.75;85.96;99172.46;435179;1252;111972;-41
2023/09/24 03:16:36;;;;;;;4.70;2.50;;;;;;;11.79;85.89;99191.13;435232;1253;108177;-44
2023/09/24 03:26:43;;;;;;;4.30;2.90;;;;;;;11.72;85.90;99188.44;435332;1252;97992;-41
2023/09/24 03:36:50;;;;;;;4.50;2.90;;;;;;;11.62;85.77;99183.88;435192;1253;107587;-43
2023/09/24 03:46:57;;;;;;;3.40;2.40;;;;;;;11.58;85.62;99183.02;435177;1256;99259;-43
2023/09/24 03:57:05;;;;;;;4.70;3.00;;;;;;;11.61;85.86;99183.92;435209;1255;110889;-42
2023/09/24 04:07:12;;;;;;;;;;;;;;;11.61;85.88;99200.43;435265;1254;107868;-42
2023/09/24 04:17:19;;;;;;;4.50;3.40;;;;;;;11.47;86.18;99220.80;435234;1256;97990;-41
2023/09/24 04:37:31;;;;;;;8.20;2.60;;;;;;;11.34;85.93;99250.41;435197;1255;99717;-43
2023/09/24 04:57:44;;;;;;;8.80;3.00;;;;;;;11.40;86.21;99270.66;435234;1256;107841;-42
2023/09/24 05:17:58;;;;;;;3.10;2.80;;;;;;;11.41;86.45;99280.80;435228;1253;108624;-41
2023/09/24 05:28:04;;;;;;;4.30;3.50;;;;;;;11.52;86.51;99293.71;434984;1256;98591;-42
2023/09/24 05:38:11;;;;;;;12.70;7.10;;;;;;;11.64;86.54;99317.23;435240;1256;112657;-42
2023/09/24 06:08:33;;;;;;;5.60;4.40;;;;;;;11.96;86.53;99345.60;435206;1256;107700;-42
2023/09/24 06:18:40;;;;;;;6.40;4.00;;;;;;;12.13;86.30;99352.36;435192;1253;99227;-42
2023/09/24 06:39:15;;;;;;;5.60;4.40;;;;;;;12.53;86.25;99346.02;436713;1253;108279;-42
2023/09/24 06:49:22;;;;;;;9.10;4.30;;;;;;;12.83;86.38;99355.39;435734;1252;98038;-42
2023/09/24 06:59:30;;;;;;;8.90;4.30;;;;;;;13.24;85.90;99375.35;436123;1252;108534;-41
2023/09/24 07:09:37;;;;;;;7.80;3.80;;;;;;;13.55;85.62;99381.05;436368;1256;99245;-42
2023/09/24 07:19:45;;;;;;;5.10;4.60;;;;;;;13.77;85.44;99387.87;436145;1254;113604;-42
2023/09/24 07:29:52;;;;;;;5.70;4.90;;;;;;;13.90;85.31;99407.79;436459;1253;108625;-42
2023/09/24 07:40:02;;;;;;;5.20;4.20;;;;;;;14.22;84.94;99410.86;436256;1256;99099;-42
2023/09/24 08:00:14;;;;;;;8.00;5.50;;;;;;;14.83;84.33;99426.27;436563;1254;99215;-41
2023/09/24 08:10:20;;;;;;;6.40;4.50;;;;;;;15.11;83.81;99443.10;436842;1255;111646;-41
2023/09/24 08:20:26;;;;;;;5.20;3.60;;;;;;;15.40;83.42;99455.27;436189;1256;107750;-42
2023/09/24 08:30:32;;;;;;;7.40;3.70;;;;;;;16.02;82.87;99466.30;435797;1256;99321;-42
2023/09/24 08:40:42;;;;;;;5.70;3.00;;;;;;;16.42;82.25;99475.35;435182;1264;107811;-43
2023/09/24 08:50:49;;;;;;;3.70;3.10;;;;;;;16.34;81.24;99482.73;435144;1256;99288;-41
2023/09/24 09:00:56;;;;;;;6.10;3.70;;;;;;;16.36;81.13;99493.64;435243;1256;113224;-42
2023/09/24 09:11:03;;;;;;;3.40;2.90;;;;;;;16.63;80.37;99503.57;435229;1256;106765;-42
2023/09/24 09:31:31;;;;;;;3.00;2.30;;;;;;;17.31;79.29;99499.35;435037;1257;106941;-41
2023/09/24 10:01:54;;;;;;;1.90;1.70;;;;;;;16.88;76.60;99503.14;435182;1257;106354;-41
2023/09/24 10:12:01;;;;;;;2.90;1.90;;;;;;;16.74;76.30;99504.36;435271;1256;99126;-42
2023/09/24 10:22:23;;;;;;;3.20;1.80;;;;;;;16.90;75.65;99496.05;435186;1257;108232;-44
2023/09/24 10:52:48;;;;;;;2.20;1.80;;;;;;;17.29;73.57;99497.97;435083;1256;107157;-41
2023/09/24 11:02:56;;;;;;;3.30;1.80;;;;;;;17.09;73.21;99495.16;435502;1254;99359;-42
2023/09/24 11:13:04;;;;;;;5.10;2.10;;;;;;;17.48;73.60;99495.49;435155;1254;107681;-41
2023/09/24 11:23:13;;;;;;;2.00;1.40;;;;;;;17.83;72.84;99494.22;435278;1256;98586;-42
2023/09/24 11:33:20;;;;;;;;;;;;;;;18.07;71.44;99494.61;435294;1256;109371;-43
2023/09/24 11:43:27;;;;;;;3.60;1.50;;;;;;;18.47;70.68;99488.58;435062;1254;107584;-42
2023/09/24 11:53:34;;;;;;;2.50;0.90;;;;;;;18.44;68.77;99500.67;435261;1257;99228;-42
2023/09/24 12:03:42;;;;;;;2.70;1.70;;;;;;;18.26;66.96;99505.70;435121;1256;107739;-41
2023/09/24 12:13:48;;;;;;;4.80;2.70;;;;;;;18.06;65.83;99505.48;435233;1254;98005;-43
2023/09/24 12:23:53;;;;;;;1.30;1.20;;;;;;;18.21;66.06;99498.17;435117;1258;110763;-42
2023/09/24 12:34:00;;;;;;;1.30;1.10;;;;;;;18.11;65.83;99504.96;434783;1254;482179;-43
2023/09/24 12:44:05;;;;;;;5.00;1.40;;;;;;;17.79;65.27;99510.45;435187;1254;99221;-42
2023/09/24 12:54:12;;;;;;;1.50;1.20;;;;;;;17.76;65.34;99511.08;435140;1257;108004;-43
2023/09/24 13:44:46;;;;;;;4.50;2.30;;;;;;;17.95;65.18;99517.31;435302;1257;108036;-42
2023/09/24 14:04:57;;;;;;;3.00;2.20;;;;;;;17.70;64.60;99528.40;435260;1254;112856;-42
2023/09/24 14:25:11;;;;;;;2.30;1.60;;;;;;;17.17;65.20;99544.63;435001;1257;99272;-41
2023/09/24 14:35:17;;;;;;;2.80;1.70;;;;;;;17.44;65.25;99537.58;435249;1256;106996;-42
2023/09/24 14:45:24;;;;;;;1.60;1.30;;;;;;;17.46;64.77;99548.14;435079;1257;99246;-42
2023/09/24 15:05:37;;;;;;;2.80;1.50;;;;;;;17.38;63.62;99543.80;435133;1251;108476;-43
2023/09/24 15:25:51;;;;;;;2.30;1.50;;;;;;;16.98;63.96;99541.52;435213;1253;107561;-42
2023/09/24 15:35:57;;;;;;;2.30;1.90;;;;;;;16.95;64.06;99550.94;435409;1256;99253;-42
2023/09/24 15:46:04;;;;;;;2.90;1.90;;;;;;;16.93;64.68;99555.88;435188;1253;111967;-44
2023/09/24 15:56:10;;;;;;;5.10;2.70;;;;;;;16.85;64.91;99559.20;435277;1253;108784;-42
2023/09/24 16:06:15;;;;;;;5.50;2.20;;;;;;;16.73;64.95;99554.55;435306;1252;99086;-44
2023/09/24 16:16:22;;;;;;;3.10;2.00;;;;;;;16.64;65.41;99553.14;435304;1253;109447;-43
2023/09/24 16:26:29;;;;;;;1.50;1.30;;;;;;;16.60;65.49;99566.11;435171;1255;99225;-43
2023/09/24 16:36:36;;;;;;;3.60;1.90;;;;;;;16.55;66.07;99589.90;435373;1252;111797;-43
2023/09/24 16:46:43;;;;;;;3.80;1.90;;;;;;;16.45;66.52;99601.02;435229;1253;108466;-43
2023/09/24 16:56:50;;;;;;;3.70;2.40;;;;;;;16.29;66.79;99612.41;435277;1256;99358;-41
2023/09/24 17:17:02;;;;;;;3.10;2.20;;;;;;;16.06;67.64;99615.50;435260;1255;97976;-42
2023/09/24 17:27:09;;;;;;;4.00;2.30;;;;;;;15.92;68.00;99619.85;435257;1253;111526;-44
2023/09/24 17:37:16;;;;;;;2.60;2.40;;;;;;;15.73;68.49;99619.45;435257;1252;108145;-43
2023/09/24 17:57:29;;;;;;;5.00;2.80;;;;;;;15.62;69.08;99639.71;435350;1253;107923;-44
2023/09/24 18:07:36;;;;;;;3.80;2.80;;;;;;;15.57;69.32;99649.72;435701;1256;99269;-41
2023/09/24 18:17:42;;;;;;;3.30;2.60;;;;;;;15.50;69.61;99662.91;435165;1252;112036;-43
2023/09/24 18:27:49;;;;;;;6.80;2.70;;;;;;;15.51;69.73;99685.64;435107;1256;109181;-44
2023/09/24 18:37:54;;;;;;;3.30;2.30;;;;;;;15.55;70.13;99703.42;435019;1265;98585;-43
2023/09/24 18:48:00;;;;;;;4.60;3.20;;;;;;;15.52;70.43;99697.88;435210;1252;108269;-44
2023/09/24 18:58:07;;;;;;;5.40;2.60;;;;;;;15.45;70.65;99698.59;435278;1256;99231;-42
2023/09/24 19:08:12;;;;;;;3.90;3.40;;;;;;;15.32;70.83;99703.96;435193;1251;111772;-42
2023/09/24 19:18:17;;;;;;;4.80;2.80;;;;;;;15.26;71.06;99703.67;435217;1256;109686;-43
2023/09/24 19:28:23;;;;;;;7.20;3.70;;;;;;;15.30;71.41;99692.77;435219;1256;98837;-43
2023/09/24 19:38:30;;;;;;;9.00;5.50;;;;;;;15.31;71.70;99684.21;434919;1251;107468;-43
2023/09/24 19:58:42;;;;;;;7.50;5.40;;;;;;;15.15;71.91;99699.88;435825;1256;110254;-42
2023/09/24 20:39:08;;;;;;;6.50;5.10;;;;;;;14.97;72.64;99685.89;435217;1258;99276;-42
2023/09/24 20:49:13;;;;;;;5.50;4.40;;;;;;;14.95;72.87;99689.27;435176;1256;111524;-44
2023/09/24 21:09:30;;;;;;;7.60;5.10;;;;;;;14.88;73.42;99709.80;435298;1253;99231;-42
2023/09/24 21:29:41;;;;;;;8.00;4.90;;;;;;;14.83;73.66;99716.81;435353;1256;99259;-42
2023/09/24 21:39:49;;;;;;;6.50;4.90;;;;;;;14.86;73.92;99711.92;435228;1256;111687;-42
2023/09/24 21:49:55;;;;;;;7.60;5.60;;;;;;;14.79;74.15;99707.50;435232;1255;109182;-42
2023/09/24 22:10:08;;;;;;;10.10;4.30;;;;;;;14.69;74.44;99722.14;435220;1251;108198;-42
2023/09/24 22:20:16;;;;;;;7.20;4.50;;;;;;;14.71;74.51;99716.54;435348;1255;99260;-42
2023/09/24 22:30:22;;;;;;;8.60;5.20;;;;;;;14.63;74.66;99715.75;435124;1256;110920;-43
2023/09/24 22:40:30;;;;;;;7.60;4.20;;;;;;;14.52;74.62;99722.52;435105;1256;108216;-43
2023/09/24 22:50:37;;;;;;;6.00;3.90;;;;;;;14.45;74.94;99727.30;435254;1256;99224;-43
2023/09/24 23:10:51;;;;;;;9.20;5.10;;;;;;;14.35;75.34;99723.39;435385;1251;98424;-42
2023/09/24 23:31:05;;;;;;;7.50;4.10;;;;;;;14.11;75.56;99728.31;435189;1253;107991;-43
2023/09/24 23:41:13;;;;;;;6.60;4.40;;;;;;;14.08;76.01;99723.54;435320;1256;99337;-42
2023/09/24 23:51:20;;;;;;;5.60;4.00;;;;;;;14.07;76.42;99720.44;435104;1255;107496;-43
